sensor_id;sensor_type;location;lat;lon;timestamp;pressure;altitude;pressure_sealevel;temperature;humidity
23643;BME280;11998;55.788;37.572;2022-12-05T00:00:37;101938.63;;;-8.89;100.00
23643;BME280;11998;55.788;37.572;2022-12-05T00:01:40;101931.56;;;-8.92;100.00
23643;BME280;11998;55.788;37.572;2022-12-05T00:02:41;101932.16;;;-8.94;100.00
23643;BME280;11998;55.788;37.572;2022-12-05T00:03:42;101929.88;;;-8.91;100.00
23643;BME280;11998;55.788;37.572;2022-12-05T00:04:43;101927.75;;;-8.86;100.00
23643;BME280;11998;55.788;37.572;2022-12-05T00:05:43;101935.94;;;-8.91;100.00
23643;BME280;11998;55.788;37.572;2022-12-05T00:06:44;101927.13;;;-8.84;100.00
23643;BME280;11998;55.788;37.572;2022-12-05T00:07:44;101923.84;;;-8.92;100.00
23643;BME280;11998;55.788;37.572;2022-12-05T00:08:45;101928.38;;;-8.89;100.00
23643;BME280;11998;55.788;37.572;2022-12-05T00:09:46;101918.84;;;-8.90;100.00
23643;BME280;11998;55.788;37.572;2022-12-05T00:10:47;101933.22;;;-8.92;100.00
23643;BME280;11998;55.788;37.572;2022-12-05T00:11:47;101919.63;;;-8.91;100.00
23643;BME280;11998;55.788;37.572;2022-12-05T00:12:48;101921.56;;;-8.89;100.00
23643;BME280;11998;55.788;37.572;2022-12-05T00:13:50;101919.31;;;-8.94;100.00
23643;BME280;11998;55.788;37.572;2022-12-05T00:14:51;101919.00;;;-8.89;100.00
23643;BME280;11998;55.788;37.572;2022-12-05T00:15:52;101923.22;;;-8.89;100.00
23643;BME280;11998;55.788;37.572;2022-12-05T00:16:52;101918.66;;;-8.83;100.00
23643;BME280;11998;55.788;37.572;2022-12-05T00:17:53;101926.25;;;-8.93;100.00
23643;BME280;11998;55.788;37.572;2022-12-05T00:18:54;101911.44;;;-8.87;100.00
23643;BME280;11998;55.788;37.572;2022-12-05T00:19:55;101918.09;;;-8.89;100.00
23643;BME280;11998;55.788;37.572;2022-12-05T00:20:55;101915.25;;;-8.92;100.00
23643;BME280;11998;55.788;37.572;2022-12-05T00:21:55;101919.66;;;-9.00;100.00
23643;BME280;11998;55.788;37.572;2022-12-05T00:22:56;101915.69;;;-8.96;100.00
23643;BME280;11998;55.788;37.572;2022-12-05T00:23:59;101912.09;;;-8.98;100.00
23643;BME280;11998;55.788;37.572;2022-12-05T00:25:00;101918.41;;;-8.95;100.00
23643;BME280;11998;55.788;37.572;2022-12-05T00:26:02;101897.59;;;-8.98;100.00
23643;BME280;11998;55.788;37.572;2022-12-05T00:27:03;101905.75;;;-9.02;100.00
23643;BME280;11998;55.788;37.572;2022-12-05T00:28:03;101906.66;;;-8.93;100.00
23643;BME280;11998;55.788;37.572;2022-12-05T00:29:04;101897.56;;;-8.89;100.00
23643;BME280;11998;55.788;37.572;2022-12-05T00:30:05;101909.63;;;-8.88;100.00
23643;BME280;11998;55.788;37.572;2022-12-05T00:31:12;101906.03;;;-8.90;100.00
23643;BME280;11998;55.788;37.572;2022-12-05T00:32:13;101906.94;;;-8.98;100.00
23643;BME280;11998;55.788;37.572;2022-12-05T00:33:14;101902.72;;;-8.98;100.00
23643;BME280;11998;55.788;37.572;2022-12-05T00:34:14;101906.19;;;-8.97;100.00
23643;BME280;11998;55.788;37.572;2022-12-05T00:35:15;101904.88;;;-9.02;100.00
23643;BME280;11998;55.788;37.572;2022-12-05T00:36:26;101898.69;;;-9.04;100.00
23643;BME280;11998;55.788;37.572;2022-12-05T00:37:27;101913.59;;;-9.00;100.00
23643;BME280;11998;55.788;37.572;2022-12-05T00:38:28;101913.00;;;-9.06;100.00
23643;BME280;11998;55.788;37.572;2022-12-05T00:39:28;101909.69;;;-9.05;100.00
23643;BME280;11998;55.788;37.572;2022-12-05T00:40:29;101910.16;;;-9.09;100.00
23643;BME280;11998;55.788;37.572;2022-12-05T00:41:29;101905.31;;;-9.06;100.00
23643;BME280;11998;55.788;37.572;2022-12-05T00:42:30;101906.06;;;-9.07;100.00
23643;BME280;11998;55.788;37.572;2022-12-05T00:43:31;101903.19;;;-9.02;100.00
23643;BME280;11998;55.788;37.572;2022-12-05T00:44:32;101901.56;;;-9.10;100.00
23643;BME280;11998;55.788;37.572;2022-12-05T00:45:32;101897.31;;;-9.01;100.00
23643;BME280;11998;55.788;37.572;2022-12-05T00:46:34;101894.72;;;-8.92;100.00
23643;BME280;11998;55.788;37.572;2022-12-05T00:47:35;101909.66;;;-8.97;100.00
23643;BME280;11998;55.788;37.572;2022-12-05T00:48:36;101908.00;;;-8.96;100.00
23643;BME280;11998;55.788;37.572;2022-12-05T00:49:37;101906.38;;;-9.04;100.00
23643;BME280;11998;55.788;37.572;2022-12-05T00:50:37;101912.59;;;-9.11;100.00
23643;BME280;11998;55.788;37.572;2022-12-05T00:51:40;101897.03;;;-9.12;100.00
23643;BME280;11998;55.788;37.572;2022-12-05T00:52:41;101903.22;;;-9.10;100.00
23643;BME280;11998;55.788;37.572;2022-12-05T00:53:42;101897.47;;;-9.08;100.00
23643;BME280;11998;55.788;37.572;2022-12-05T00:54:43;101897.59;;;-9.06;100.00
23643;BME280;11998;55.788;37.572;2022-12-05T00:55:43;101888.72;;;-9.10;100.00
23643;BME280;11998;55.788;37.572;2022-12-05T00:56:44;101887.97;;;-9.09;100.00
23643;BME280;11998;55.788;37.572;2022-12-05T00:57:45;101896.84;;;-9.05;100.00
23643;BME280;11998;55.788;37.572;2022-12-05T00:58:46;101891.56;;;-9.07;100.00
23643;BME280;11998;55.788;37.572;2022-12-05T00:59:47;101896.41;;;-9.01;100.00
23643;BME280;11998;55.788;37.572;2022-12-05T01:00:48;101892.94;;;-9.02;100.00
23643;BME280;11998;55.788;37.572;2022-12-05T01:01:49;101892.16;;;-9.01;100.00
23643;BME280;11998;55.788;37.572;2022-12-05T01:02:50;101877.06;;;-9.06;100.00
23643;BME280;11998;55.788;37.572;2022-12-05T01:03:53;101883.09;;;-9.06;100.00
23643;BME280;11998;55.788;37.572;2022-12-05T01:04:53;101884.75;;;-8.98;100.00
23643;BME280;11998;55.788;37.572;2022-12-05T01:05:54;101889.47;;;-9.02;100.00
23643;BME280;11998;55.788;37.572;2022-12-05T01:06:56;101888.97;;;-8.98;100.00
23643;BME280;11998;55.788;37.572;2022-12-05T01:07:57;101880.38;;;-8.99;100.00
23643;BME280;11998;55.788;37.572;2022-12-05T01:08:58;101886.28;;;-9.08;100.00
23643;BME280;11998;55.788;37.572;2022-12-05T01:09:58;101875.88;;;-9.10;100.00
23643;BME280;11998;55.788;37.572;2022-12-05T01:10:59;101883.72;;;-9.08;100.00
23643;BME280;11998;55.788;37.572;2022-12-05T01:12:00;101871.09;;;-9.15;100.00
23643;BME280;11998;55.788;37.572;2022-12-05T01:13:00;101869.28;;;-9.16;100.00
23643;BME280;11998;55.788;37.572;2022-12-05T01:14:01;101869.75;;;-9.21;100.00
23643;BME280;11998;55.788;37.572;2022-12-05T01:15:02;101866.41;;;-9.20;100.00
23643;BME280;11998;55.788;37.572;2022-12-05T01:16:04;101873.53;;;-9.26;100.00
23643;BME280;11998;55.788;37.572;2022-12-05T01:17:05;101874.44;;;-9.25;100.00
23643;BME280;11998;55.788;37.572;2022-12-05T01:18:05;101867.16;;;-9.21;100.00
23643;BME280;11998;55.788;37.572;2022-12-05T01:19:10;101869.94;;;-9.28;100.00
23643;BME280;11998;55.788;37.572;2022-12-05T01:20:11;101861.75;;;-9.24;100.00
23643;BME280;11998;55.788;37.572;2022-12-05T01:21:12;101863.56;;;-9.23;100.00
23643;BME280;11998;55.788;37.572;2022-12-05T01:22:13;101859.34;;;-9.31;100.00
23643;BME280;11998;55.788;37.572;2022-12-05T01:23:14;101859.66;;;-9.28;100.00
23643;BME280;11998;55.788;37.572;2022-12-05T01:24:16;101858.44;;;-9.23;100.00
23643;BME280;11998;55.788;37.572;2022-12-05T01:25:17;101855.09;;;-9.22;100.00
23643;BME280;11998;55.788;37.572;2022-12-05T01:26:19;101854.81;;;-9.25;100.00
23643;BME280;11998;55.788;37.572;2022-12-05T01:27:20;101850.94;;;-9.30;100.00
23643;BME280;11998;55.788;37.572;2022-12-05T01:28:20;101857.88;;;-9.29;100.00
23643;BME280;11998;55.788;37.572;2022-12-05T01:29:22;101861.75;;;-9.24;100.00
23643;BME280;11998;55.788;37.572;2022-12-05T01:30:23;101853.91;;;-9.16;100.00
23643;BME280;11998;55.788;37.572;2022-12-05T01:31:29;101851.78;;;-9.21;100.00
23643;BME280;11998;55.788;37.572;2022-12-05T01:32:30;101853.13;;;-9.15;100.00
23643;BME280;11998;55.788;37.572;2022-12-05T01:33:31;101849.34;;;-9.19;100.00
23643;BME280;11998;55.788;37.572;2022-12-05T01:34:31;101855.38;;;-9.19;100.00
23643;BME280;11998;55.788;37.572;2022-12-05T01:35:33;101836.38;;;-9.21;100.00
23643;BME280;11998;55.788;37.572;2022-12-05T01:36:34;101846.38;;;-9.24;100.00
23643;BME280;11998;55.788;37.572;2022-12-05T01:37:35;101847.28;;;-9.32;100.00
23643;BME280;11998;55.788;37.572;2022-12-05T01:38:35;101849.41;;;-9.28;100.00
23643;BME280;11998;55.788;37.572;2022-12-05T01:39:36;101831.72;;;-9.25;100.00
23643;BME280;11998;55.788;37.572;2022-12-05T01:40:36;101839.44;;;-9.25;100.00
23643;BME280;11998;55.788;37.572;2022-12-05T01:41:40;101836.84;;;-9.25;100.00
23643;BME280;11998;55.788;37.572;2022-12-05T01:42:40;101834.28;;;-9.25;100.00
23643;BME280;11998;55.788;37.572;2022-12-05T01:43:58;101830.69;;;-9.27;100.00
23643;BME280;11998;55.788;37.572;2022-12-05T01:45:15;101830.72;;;-9.35;100.00
23643;BME280;11998;55.788;37.572;2022-12-05T01:46:17;101836.72;;;-9.26;100.00
23643;BME280;11998;55.788;37.572;2022-12-05T01:47:17;101833.25;;;-9.27;100.00
23643;BME280;11998;55.788;37.572;2022-12-05T01:48:22;101831.88;;;-9.32;100.00
23643;BME280;11998;55.788;37.572;2022-12-05T01:49:29;101829.44;;;-9.22;100.00
23643;BME280;11998;55.788;37.572;2022-12-05T01:50:32;101829.44;;;-9.22;100.00
23643;BME280;11998;55.788;37.572;2022-12-05T01:51:35;101827.34;;;-9.26;100.00
23643;BME280;11998;55.788;37.572;2022-12-05T01:52:38;101839.16;;;-9.28;100.00
23643;BME280;11998;55.788;37.572;2022-12-05T01:53:38;101844.06;;;-9.21;100.00
23643;BME280;11998;55.788;37.572;2022-12-05T01:54:39;101846.09;;;-9.27;100.00
23643;BME280;11998;55.788;37.572;2022-12-05T01:55:40;101842.47;;;-9.29;100.00
23643;BME280;11998;55.788;37.572;2022-12-05T01:56:43;101834.94;;;-9.36;100.00
23643;BME280;11998;55.788;37.572;2022-12-05T01:57:46;101846.72;;;-9.38;100.00
23643;BME280;11998;55.788;37.572;2022-12-05T01:58:48;101842.91;;;-9.33;100.00
23643;BME280;11998;55.788;37.572;2022-12-05T01:59:52;101834.78;;;-9.37;100.00
23643;BME280;11998;55.788;37.572;2022-12-05T02:00:54;101845.19;;;-9.36;100.00
23643;BME280;11998;55.788;37.572;2022-12-05T02:01:55;101847.75;;;-9.36;100.00
23643;BME280;11998;55.788;37.572;2022-12-05T02:02:59;101830.72;;;-9.44;100.00
23643;BME280;11998;55.788;37.572;2022-12-05T02:04:02;101837.66;;;-9.43;100.00
23643;BME280;11998;55.788;37.572;2022-12-05T02:05:20;101834.94;;;-9.36;100.00
23643;BME280;11998;55.788;37.572;2022-12-05T02:06:21;101841.13;;;-9.42;100.00
23643;BME280;11998;55.788;37.572;2022-12-05T02:07:23;101834.31;;;-9.33;100.00
23643;BME280;11998;55.788;37.572;2022-12-05T02:08:26;101835.22;;;-9.33;100.00
23643;BME280;11998;55.788;37.572;2022-12-05T02:09:27;101845.47;;;-9.33;100.00
23643;BME280;11998;55.788;37.572;2022-12-05T02:10:32;101826.91;;;-9.30;100.00
23643;BME280;11998;55.788;37.572;2022-12-05T02:11:35;101828.00;;;-9.37;100.00
23643;BME280;11998;55.788;37.572;2022-12-05T02:12:42;101827.09;;;-9.37;100.00
23643;BME280;11998;55.788;37.572;2022-12-05T02:16:46;101827.72;;;-9.40;100.00
23643;BME280;11998;55.788;37.572;2022-12-05T02:20:29;101819.25;;;-9.39;100.00
23643;BME280;11998;55.788;37.572;2022-12-05T02:21:59;101816.84;;;-9.46;100.00
23643;BME280;11998;55.788;37.572;2022-12-05T02:30:01;101815.34;;;-9.44;100.00
23643;BME280;11998;55.788;37.572;2022-12-05T02:31:15;101816.56;;;-9.49;100.00
23643;BME280;11998;55.788;37.572;2022-12-05T02:32:19;101808.72;;;-9.42;100.00
23643;BME280;11998;55.788;37.572;2022-12-05T02:34:46;101796.34;;;-9.46;100.00
23643;BME280;11998;55.788;37.572;2022-12-05T02:36:06;101810.81;;;-9.47;100.00
23643;BME280;11998;55.788;37.572;2022-12-05T02:40:08;101809.03;;;-9.48;100.00
23643;BME280;11998;55.788;37.572;2022-12-05T02:42:52;101814.50;;;-9.53;100.00
23643;BME280;11998;55.788;37.572;2022-12-05T02:43:57;101807.25;;;-9.57;100.00
23643;BME280;11998;55.788;37.572;2022-12-05T02:45:02;101809.38;;;-9.53;100.00
23643;BME280;11998;55.788;37.572;2022-12-05T02:46:20;101794.25;;;-9.50;100.00
23643;BME280;11998;55.788;37.572;2022-12-05T02:47:25;101796.34;;;-9.46;100.00
23643;BME280;11998;55.788;37.572;2022-12-05T02:48:27;101802.09;;;-9.49;100.00
23643;BME280;11998;55.788;37.572;2022-12-05T02:49:31;101798.91;;;-9.46;100.00
23643;BME280;11998;55.788;37.572;2022-12-05T02:50:37;101798.47;;;-9.42;100.00
23643;BME280;11998;55.788;37.572;2022-12-05T02:51:45;101803.28;;;-9.45;100.00
23643;BME280;11998;55.788;37.572;2022-12-05T02:52:49;101797.84;;;-9.39;100.00
23643;BME280;11998;55.788;37.572;2022-12-05T02:53:53;101797.56;;;-9.51;100.00
23643;BME280;11998;55.788;37.572;2022-12-05T02:54:58;101797.25;;;-9.45;100.00
23643;BME280;11998;55.788;37.572;2022-12-05T02:56:00;101797.88;;;-9.48;100.00
23643;BME280;11998;55.788;37.572;2022-12-05T02:57:01;101802.09;;;-9.49;100.00
23643;BME280;11998;55.788;37.572;2022-12-05T02:58:05;101795.72;;;-9.43;100.00
23643;BME280;11998;55.788;37.572;2022-12-05T02:59:06;101791.84;;;-9.49;100.00
23643;BME280;11998;55.788;37.572;2022-12-05T03:00:07;101790.31;;;-9.47;100.00
23643;BME280;11998;55.788;37.572;2022-12-05T03:01:08;101787.59;;;-9.48;100.00
23643;BME280;11998;55.788;37.572;2022-12-05T03:02:21;101787.88;;;-9.45;100.00
23643;BME280;11998;55.788;37.572;2022-12-05T03:03:22;101783.84;;;-9.52;100.00
23643;BME280;11998;55.788;37.572;2022-12-05T03:04:25;101786.28;;;-9.53;100.00
23643;BME280;11998;55.788;37.572;2022-12-05T03:05:41;101785.50;;;-9.52;100.00
23643;BME280;11998;55.788;37.572;2022-12-05T03:06:51;101784.56;;;-9.44;100.00
23643;BME280;11998;55.788;37.572;2022-12-05T03:07:55;101790.34;;;-9.55;100.00
23643;BME280;11998;55.788;37.572;2022-12-05T03:09:26;101784.28;;;-9.47;100.00
23643;BME280;11998;55.788;37.572;2022-12-05T03:10:30;101785.03;;;-9.48;100.00
23643;BME280;11998;55.788;37.572;2022-12-05T03:11:40;101780.03;;;-9.38;100.00
23643;BME280;11998;55.788;37.572;2022-12-05T03:12:47;101774.00;;;-9.47;100.00
23643;BME280;11998;55.788;37.572;2022-12-05T03:13:55;101776.41;;;-9.40;100.00
23643;BME280;11998;55.788;37.572;2022-12-05T03:15:14;101776.72;;;-9.45;100.00
23643;BME280;11998;55.788;37.572;2022-12-05T03:16:33;101780.94;;;-9.37;100.00
23643;BME280;11998;55.788;37.572;2022-12-05T03:18:03;101774.63;;;-9.41;100.00
23643;BME280;11998;55.788;37.572;2022-12-05T03:19:17;101779.13;;;-9.38;100.00
23643;BME280;11998;55.788;37.572;2022-12-05T03:20:26;101777.25;;;-9.31;100.00
23643;BME280;11998;55.788;37.572;2022-12-05T03:21:36;101771.84;;;-9.34;100.00
23643;BME280;11998;55.788;37.572;2022-12-05T03:22:49;101771.28;;;-9.40;100.00
23643;BME280;11998;55.788;37.572;2022-12-05T03:24:06;101765.84;;;-9.43;100.00
23643;BME280;11998;55.788;37.572;2022-12-05T03:25:08;101767.69;;;-9.42;100.00
23643;BME280;11998;55.788;37.572;2022-12-05T03:26:36;101771.56;;;-9.37;100.00
23643;BME280;11998;55.788;37.572;2022-12-05T03:28:04;101772.97;;;-9.49;100.00
23643;BME280;11998;55.788;37.572;2022-12-05T03:29:35;101772.84;;;-9.51;100.00
23643;BME280;11998;55.788;37.572;2022-12-05T03:30:39;101768.59;;;-9.50;100.00
23643;BME280;11998;55.788;37.572;2022-12-05T03:31:52;101768.75;;;-9.49;100.00
23643;BME280;11998;55.788;37.572;2022-12-05T03:33:10;101764.38;;;-9.50;100.00
23643;BME280;11998;55.788;37.572;2022-12-05T03:34:20;101757.31;;;-9.52;100.00
23643;BME280;11998;55.788;37.572;2022-12-05T03:35:39;101761.69;;;-9.51;100.00
23643;BME280;11998;55.788;37.572;2022-12-05T03:36:47;101757.59;;;-9.49;100.00
23643;BME280;11998;55.788;37.572;2022-12-05T03:37:55;101766.53;;;-9.54;100.00
23643;BME280;11998;55.788;37.572;2022-12-05T03:41:28;101754.88;;;-9.51;100.00
23643;BME280;11998;55.788;37.572;2022-12-05T03:42:34;101747.69;;;-9.63;100.00
23643;BME280;11998;55.788;37.572;2022-12-05T03:44:59;101764.41;;;-9.58;100.00
23643;BME280;11998;55.788;37.572;2022-12-05T03:46:05;101759.28;;;-9.58;100.00
23643;BME280;11998;55.788;37.572;2022-12-05T03:48:44;101748.72;;;-9.61;100.00
23643;BME280;11998;55.788;37.572;2022-12-05T03:49:47;101747.84;;;-9.62;100.00
23643;BME280;11998;55.788;37.572;2022-12-05T03:50:50;101752.38;;;-9.68;100.00
23643;BME280;11998;55.788;37.572;2022-12-05T03:53:10;101736.97;;;-9.59;100.00
23643;BME280;11998;55.788;37.572;2022-12-05T03:54:25;101747.81;;;-9.53;100.00
23643;BME280;11998;55.788;37.572;2022-12-05T03:55:28;101748.13;;;-9.67;100.00
23643;BME280;11998;55.788;37.572;2022-12-05T03:56:40;101746.34;;;-9.68;100.00
23643;BME280;11998;55.788;37.572;2022-12-05T03:58:00;101733.06;;;-9.64;100.00
23643;BME280;11998;55.788;37.572;2022-12-05T03:59:26;101741.53;;;-9.65;100.00
23643;BME280;11998;55.788;37.572;2022-12-05T04:00:32;101745.41;;;-9.60;100.00
23643;BME280;11998;55.788;37.572;2022-12-05T04:01:35;101736.41;;;-9.65;100.00
23643;BME280;11998;55.788;37.572;2022-12-05T04:02:51;101740.00;;;-9.63;100.00
23643;BME280;11998;55.788;37.572;2022-12-05T04:03:57;101741.53;;;-9.65;100.00
23643;BME280;11998;55.788;37.572;2022-12-05T04:05:09;101736.25;;;-9.67;100.00
23643;BME280;11998;55.788;37.572;2022-12-05T04:07:18;101737.88;;;-9.67;100.00
23643;BME280;11998;55.788;37.572;2022-12-05T04:08:32;101737.31;;;-9.73;100.00
23643;BME280;11998;55.788;37.572;2022-12-05T04:09:40;101736.09;;;-9.68;100.00
23643;BME280;11998;55.788;37.572;2022-12-05T04:10:45;101738.19;;;-9.64;100.00
23643;BME280;11998;55.788;37.572;2022-12-05T04:11:52;101735.50;;;-9.74;100.00
23643;BME280;11998;55.788;37.572;2022-12-05T04:12:57;101742.44;;;-9.65;100.00
23643;BME280;11998;55.788;37.572;2022-12-05T04:14:21;101741.22;;;-9.68;100.00
23643;BME280;11998;55.788;37.572;2022-12-05T04:15:27;101740.00;;;-9.63;100.00
23643;BME280;11998;55.788;37.572;2022-12-05T04:16:53;101737.88;;;-9.67;100.00
23643;BME280;11998;55.788;37.572;2022-12-05T04:18:06;101729.47;;;-9.66;100.00
23643;BME280;11998;55.788;37.572;2022-12-05T04:19:17;101736.97;;;-9.68;100.00
23643;BME280;11998;55.788;37.572;2022-12-05T04:20:38;101723.25;;;-9.68;100.00
23643;BME280;11998;55.788;37.572;2022-12-05T04:22:00;101727.03;;;-9.65;100.00
23643;BME280;11998;55.788;37.572;2022-12-05T04:23:00;101725.66;;;-9.61;100.00
23643;BME280;11998;55.788;37.572;2022-12-05T04:24:01;101725.19;;;-9.57;100.00
23643;BME280;11998;55.788;37.572;2022-12-05T04:25:21;101724.03;;;-9.69;100.00
23643;BME280;11998;55.788;37.572;2022-12-05T04:26:35;101724.34;;;-9.66;100.00
23643;BME280;11998;55.788;37.572;2022-12-05T04:29:01;101723.25;;;-9.68;100.00
23643;BME280;11998;55.788;37.572;2022-12-05T04:31:15;101718.06;;;-9.79;100.00
23643;BME280;11998;55.788;37.572;2022-12-05T04:32:19;101725.56;;;-9.80;100.00
23643;BME280;11998;55.788;37.572;2022-12-05T04:33:35;101724.66;;;-9.81;100.00
23643;BME280;11998;55.788;37.572;2022-12-05T04:34:41;101727.81;;;-9.74;100.00
23643;BME280;11998;55.788;37.572;2022-12-05T04:35:52;101715.78;;;-9.75;100.00
23643;BME280;11998;55.788;37.572;2022-12-05T04:36:59;101717.09;;;-9.70;100.00
23643;BME280;11998;55.788;37.572;2022-12-05T04:38:12;101718.06;;;-9.79;100.00
23643;BME280;11998;55.788;37.572;2022-12-05T04:39:33;101720.91;;;-9.75;100.00
23643;BME280;11998;55.788;37.572;2022-12-05T04:40:40;101713.38;;;-9.83;100.00
23643;BME280;11998;55.788;37.572;2022-12-05T04:41:45;101716.69;;;-9.84;100.00
23643;BME280;11998;55.788;37.572;2022-12-05T04:42:47;101714.72;;;-9.78;100.00
23643;BME280;11998;55.788;37.572;2022-12-05T04:43:50;101709.00;;;-9.84;100.00
23643;BME280;11998;55.788;37.572;2022-12-05T04:44:54;101709.34;;;-9.89;100.00
23643;BME280;11998;55.788;37.572;2022-12-05T04:45:58;101707.34;;;-9.83;100.00
23643;BME280;11998;55.788;37.572;2022-12-05T04:47:02;101712.31;;;-9.85;100.00
23643;BME280;11998;55.788;37.572;2022-12-05T04:48:09;101700.00;;;-9.89;100.00
23643;BME280;11998;55.788;37.572;2022-12-05T04:49:14;101702.41;;;-9.90;100.00
23643;BME280;11998;55.788;37.572;2022-12-05T04:50:16;101694.53;;;-9.83;100.00
23643;BME280;11998;55.788;37.572;2022-12-05T04:51:23;101705.13;;;-9.89;100.00
23643;BME280;11998;55.788;37.572;2022-12-05T04:52:26;101708.38;;;-9.81;100.00
23643;BME280;11998;55.788;37.572;2022-12-05T04:53:30;101705.41;;;-9.86;100.00
23643;BME280;11998;55.788;37.572;2022-12-05T04:54:35;101702.41;;;-9.90;100.00
23643;BME280;11998;55.788;37.572;2022-12-05T04:55:41;101695.91;;;-9.87;100.00
23643;BME280;11998;55.788;37.572;2022-12-05T04:56:45;101702.84;;;-9.86;100.00
23643;BME280;11998;55.788;37.572;2022-12-05T04:58:05;101693.34;;;-9.87;100.00
23643;BME280;11998;55.788;37.572;2022-12-05T04:59:07;101684.91;;;-9.86;100.00
23643;BME280;11998;55.788;37.572;2022-12-05T05:00:08;101694.25;;;-9.86;100.00
23643;BME280;11998;55.788;37.572;2022-12-05T05:01:22;101688.50;;;-9.84;100.00
23643;BME280;11998;55.788;37.572;2022-12-05T05:02:39;101697.72;;;-9.86;100.00
23643;BME280;11998;55.788;37.572;2022-12-05T05:03:45;101697.44;;;-9.89;100.00
23643;BME280;11998;55.788;37.572;2022-12-05T05:04:51;101690.50;;;-9.90;100.00
23643;BME280;11998;55.788;37.572;2022-12-05T05:05:55;101693.63;;;-9.84;100.00
23643;BME280;11998;55.788;37.572;2022-12-05T05:06:57;101688.50;;;-9.84;100.00
23643;BME280;11998;55.788;37.572;2022-12-05T05:07:57;101686.97;;;-9.82;100.00
23643;BME280;11998;55.788;37.572;2022-12-05T05:08:58;101691.34;;;-9.81;100.00
23643;BME280;11998;55.788;37.572;2022-12-05T05:09:58;101694.88;;;-9.89;100.00
23643;BME280;11998;55.788;37.572;2022-12-05T05:11:14;101691.06;;;-9.84;100.00
23643;BME280;11998;55.788;37.572;2022-12-05T05:12:15;101690.94;;;-9.94;100.00
23643;BME280;11998;55.788;37.572;2022-12-05T05:13:16;101690.03;;;-9.86;100.00
23643;BME280;11998;55.788;37.572;2022-12-05T05:14:16;101686.41;;;-9.88;100.00
23643;BME280;11998;55.788;37.572;2022-12-05T05:15:17;101695.16;;;-9.86;100.00
23643;BME280;11998;55.788;37.572;2022-12-05T05:16:23;101695.75;;;-9.80;100.00
23643;BME280;11998;55.788;37.572;2022-12-05T05:17:24;101697.53;;;-9.79;100.00
23643;BME280;11998;55.788;37.572;2022-12-05T05:18:24;101701.78;;;-9.79;100.00
23643;BME280;11998;55.788;37.572;2022-12-05T05:19:25;101696.94;;;-9.85;100.00
23643;BME280;11998;55.788;37.572;2022-12-05T05:20:25;101705.13;;;-9.89;100.00
23643;BME280;11998;55.788;37.572;2022-12-05T05:21:32;101696.94;;;-9.85;100.00
23643;BME280;11998;55.788;37.572;2022-12-05T05:22:33;101702.09;;;-9.93;100.00
23643;BME280;11998;55.788;37.572;2022-12-05T05:23:33;101685.66;;;-9.87;100.00
23643;BME280;11998;55.788;37.572;2022-12-05T05:24:34;101702.06;;;-9.85;100.00
23643;BME280;11998;55.788;37.572;2022-12-05T05:25:34;101709.00;;;-9.84;100.00
23643;BME280;11998;55.788;37.572;2022-12-05T05:26:38;101683.38;;;-9.84;100.00
23643;BME280;11998;55.788;37.572;2022-12-05T05:27:39;101683.09;;;-9.87;100.00
23643;BME280;11998;55.788;37.572;2022-12-05T05:28:39;101698.94;;;-9.91;100.00
23643;BME280;11998;55.788;37.572;2022-12-05T05:29:40;101696.06;;;-9.94;100.00
23643;BME280;11998;55.788;37.572;2022-12-05T05:30:40;101694.09;;;-9.88;100.00
23643;BME280;11998;55.788;37.572;2022-12-05T05:31:41;101693.97;;;-9.89;100.00
23643;BME280;11998;55.788;37.572;2022-12-05T05:32:42;101686.13;;;-9.91;100.00
23643;BME280;11998;55.788;37.572;2022-12-05T05:33:42;101695.91;;;-9.87;100.00
23643;BME280;11998;55.788;37.572;2022-12-05T05:34:43;101686.41;;;-9.88;100.00
23643;BME280;11998;55.788;37.572;2022-12-05T05:35:43;101689.13;;;-9.95;100.00
23643;BME280;11998;55.788;37.572;2022-12-05T05:36:44;101690.03;;;-9.86;100.00
23643;BME280;11998;55.788;37.572;2022-12-05T05:37:45;101691.19;;;-9.82;100.00
23643;BME280;11998;55.788;37.572;2022-12-05T05:38:48;101683.72;;;-9.89;100.00
23643;BME280;11998;55.788;37.572;2022-12-05T05:39:49;101680.25;;;-9.90;100.00
23643;BME280;11998;55.788;37.572;2022-12-05T05:40:49;101678.88;;;-9.86;100.00
23643;BME280;11998;55.788;37.572;2022-12-05T05:41:50;101677.97;;;-9.87;100.00
23643;BME280;11998;55.788;37.572;2022-12-05T05:42:50;101677.69;;;-9.90;100.00
23643;BME280;11998;55.788;37.572;2022-12-05T05:43:51;101679.22;;;-9.92;100.00
23643;BME280;11998;55.788;37.572;2022-12-05T05:44:52;101680.53;;;-9.87;100.00
23643;BME280;11998;55.788;37.572;2022-12-05T05:45:52;101679.75;;;-9.86;100.00
23643;BME280;11998;55.788;37.572;2022-12-05T05:46:53;101680.03;;;-9.83;100.00
23643;BME280;11998;55.788;37.572;2022-12-05T05:47:53;101673.13;;;-9.84;100.00
23643;BME280;11998;55.788;37.572;2022-12-05T05:48:54;101677.38;;;-9.93;100.00
23643;BME280;11998;55.788;37.572;2022-12-05T05:49:55;101684.31;;;-9.92;100.00
23643;BME280;11998;55.788;37.572;2022-12-05T05:50:58;101676.78;;;-9.90;100.00
23643;BME280;11998;55.788;37.572;2022-12-05T05:51:58;101675.88;;;-9.91;100.00
23643;BME280;11998;55.788;37.572;2022-12-05T05:52:59;101671.03;;;-9.88;100.00
23643;BME280;11998;55.788;37.572;2022-12-05T05:54:00;101674.34;;;-9.89;100.00
23643;BME280;11998;55.788;37.572;2022-12-05T05:55:01;101679.75;;;-9.86;100.00
23643;BME280;11998;55.788;37.572;2022-12-05T05:56:03;101675.06;;;-9.81;100.00
23643;BME280;11998;55.788;37.572;2022-12-05T05:57:05;101677.59;;;-9.72;100.00
23643;BME280;11998;55.788;37.572;2022-12-05T05:58:05;101679.66;;;-9.68;100.00
23643;BME280;11998;55.788;37.572;2022-12-05T05:59:06;101679.22;;;-9.64;100.00